createdAt,value
2023-01-11T00:01:53.826Z,100511.88
2023-01-11T00:04:20.729Z,100511.78
2023-01-11T00:06:47.295Z,100518.28
2023-01-11T00:09:13.963Z,100509.63
2023-01-11T00:11:40.468Z,100514.97
2023-01-11T00:14:06.935Z,100514.66
2023-01-11T00:16:33.441Z,100503.28
2023-01-11T00:18:59.927Z,100496.28
2023-01-11T00:21:26.783Z,100491.06
2023-01-11T00:23:53.333Z,100494.31
2023-01-11T00:26:19.811Z,100503.69
2023-01-11T00:28:49.123Z,100496.81
2023-01-11T00:31:16.657Z,100495.16
2023-01-11T00:33:43.157Z,100503.56
2023-01-11T00:36:09.867Z,100490.56
2023-01-11T00:38:46.771Z,100492.31
2023-01-11T00:41:33.321Z,100498.84
2023-01-11T00:44:18.855Z,100479.09
2023-01-11T00:47:03.673Z,100471.97
2023-01-11T00:49:30.702Z,100475.28
2023-01-11T00:51:57.327Z,100469.03
2023-01-11T00:54:23.800Z,100467.13
2023-01-11T00:56:50.340Z,100453.03
2023-01-11T00:59:16.832Z,100468.69
2023-01-11T01:01:43.328Z,100456.00
2023-01-11T01:04:09.927Z,100470.59
2023-01-11T01:06:36.689Z,100472.50
2023-01-11T01:09:03.241Z,100464.59
2023-01-11T01:11:29.711Z,100462.69
2023-01-11T01:14:14.815Z,100468.84
2023-01-11T01:16:42.337Z,100461.88
2023-01-11T01:19:09.363Z,100462.47
2023-01-11T01:21:37.423Z,100461.97
2023-01-11T01:24:04.185Z,100462.03
2023-01-11T01:26:31.012Z,100451.22
2023-01-11T01:28:57.470Z,100431.31
2023-01-11T01:31:24.042Z,100439.94
2023-01-11T01:33:50.547Z,100442.25
2023-01-11T01:36:17.119Z,100447.69
2023-01-11T01:38:43.582Z,100434.38
2023-01-11T01:41:12.982Z,100427.59
2023-01-11T01:43:49.899Z,100441.06
2023-01-11T01:46:16.987Z,100436.69
2023-01-11T01:48:48.157Z,100439.88
2023-01-11T01:51:21.160Z,100440.09
2023-01-11T01:53:49.853Z,100429.41
2023-01-11T01:56:25.185Z,100421.56
2023-01-11T01:58:57.940Z,100423.97
2023-01-11T02:01:43.310Z,100438.63
2023-01-11T02:04:20.813Z,100419.53
2023-01-11T02:06:48.182Z,100403.91
2023-01-11T02:09:27.227Z,100427.00
2023-01-11T02:11:56.589Z,100443.53
2023-01-11T02:14:24.921Z,100437.47
2023-01-11T02:16:51.606Z,100426.88
2023-01-11T02:19:48.842Z,100429.38
2023-01-11T02:23:07.957Z,100424.53
2023-01-11T02:25:58.733Z,100412.69
2023-01-11T02:28:40.319Z,100412.38
2023-01-11T02:31:21.953Z,100402.19
2023-01-11T02:34:00.564Z,100403.00
2023-01-11T02:36:37.883Z,100393.50
2023-01-11T02:39:30.987Z,100398.84
2023-01-11T02:42:19.102Z,100395.44
2023-01-11T02:45:04.014Z,100378.59
2023-01-11T02:47:33.909Z,100384.13
2023-01-11T02:50:16.551Z,100378.91
2023-01-11T02:52:52.420Z,100379.38
2023-01-11T02:55:24.290Z,100361.19
2023-01-11T02:57:54.296Z,100365.78
2023-01-11T03:00:21.946Z,100373.94
2023-01-11T03:03:16.333Z,100375.31
2023-01-11T03:05:55.681Z,100363.38
2023-01-11T03:08:22.063Z,100350.06
2023-01-11T03:10:48.462Z,100356.66
2023-01-11T03:13:23.752Z,100354.75
2023-01-11T03:16:21.894Z,100348.31
2023-01-11T03:19:21.482Z,100351.22
2023-01-11T03:22:03.846Z,100358.78
2023-01-11T03:24:46.300Z,100376.28
2023-01-11T03:27:26.420Z,100359.06
2023-01-11T03:30:05.743Z,100361.06
2023-01-11T03:32:35.216Z,100369.22
2023-01-11T03:35:31.352Z,100372.22
2023-01-11T03:38:05.911Z,100357.00
2023-01-11T03:40:39.308Z,100360.19
2023-01-11T03:43:12.324Z,100354.63
2023-01-11T03:46:00.002Z,100362.72
2023-01-11T03:48:32.796Z,100362.28
2023-01-11T03:51:01.698Z,100355.66
2023-01-11T03:53:31.717Z,100349.59
2023-01-11T03:56:00.631Z,100351.78
2023-01-11T03:58:27.870Z,100348.44
2023-01-11T04:00:56.402Z,100354.41
2023-01-11T04:03:25.506Z,100353.56
2023-01-11T04:05:57.956Z,100345.97
2023-01-11T04:08:24.566Z,100333.72
2023-01-11T04:10:51.017Z,100335.50
2023-01-11T04:13:17.607Z,100326.84
2023-01-11T04:15:44.219Z,100331.38
2023-01-11T04:18:10.795Z,100330.78
2023-01-11T04:20:40.266Z,100328.00
2023-01-11T04:23:08.263Z,100322.78
2023-01-11T04:25:34.830Z,100328.97
2023-01-11T04:28:01.518Z,100325.66
2023-01-11T04:30:27.983Z,100324.44
2023-01-11T04:32:56.880Z,100325.41
2023-01-11T04:35:23.497Z,100319.00
2023-01-11T04:37:53.882Z,100312.59
2023-01-11T04:40:20.454Z,100319.09
2023-01-11T04:42:47.172Z,100313.19
2023-01-11T04:45:13.717Z,100317.84
2023-01-11T04:47:40.311Z,100316.75
2023-01-11T04:50:08.535Z,100320.47
2023-01-11T04:52:35.088Z,100321.19
2023-01-11T04:55:01.574Z,100325.44
2023-01-11T04:57:28.073Z,100319.38
2023-01-11T04:59:54.494Z,100319.38
2023-01-11T05:02:20.980Z,100317.63
2023-01-11T05:04:47.478Z,100314.03
2023-01-11T05:07:14.116Z,100307.00
2023-01-11T05:09:40.908Z,100294.88
2023-01-11T05:12:07.486Z,100327.69
2023-01-11T05:14:33.975Z,100322.19
2023-01-11T05:17:00.503Z,100326.72
2023-01-11T05:19:27.086Z,100313.66
2023-01-11T05:21:53.618Z,100317.47
2023-01-11T05:24:20.132Z,100324.38
2023-01-11T05:26:48.456Z,100307.00
2023-01-11T05:29:19.191Z,100313.78
2023-01-11T05:31:45.607Z,100328.47
2023-01-11T05:34:14.328Z,100317.22
2023-01-11T05:36:41.372Z,100325.84
2023-01-11T05:39:08.483Z,100331.38
2023-01-11T05:41:36.068Z,100326.97
2023-01-11T05:44:21.256Z,100330.41
2023-01-11T05:46:47.767Z,100319.38
2023-01-11T05:49:14.990Z,100326.03
2023-01-11T05:51:42.759Z,100328.88
2023-01-11T05:54:14.172Z,100336.72
2023-01-11T05:56:42.522Z,100319.28
2023-01-11T05:59:09.183Z,100312.63
2023-01-11T06:01:36.108Z,100307.97
2023-01-11T06:04:02.691Z,100316.22
2023-01-11T06:06:29.686Z,100312.78
2023-01-11T06:08:56.301Z,100304.66
2023-01-11T06:11:23.733Z,100301.06
2023-01-11T06:13:50.284Z,100307.56
2023-01-11T06:16:19.447Z,100290.63
2023-01-11T06:18:51.547Z,100307.81
2023-01-11T06:21:18.603Z,100332.44
2023-01-11T06:23:47.646Z,100315.81
2023-01-11T06:26:16.816Z,100326.84
2023-01-11T06:28:43.762Z,100321.19
2023-01-11T06:31:10.639Z,100321.88
2023-01-11T06:33:37.243Z,100324.38
2023-01-11T06:36:06.504Z,100319.97
2023-01-11T06:38:36.102Z,100314.84
2023-01-11T06:41:05.388Z,100326.25
2023-01-11T06:43:32.329Z,100324.75
2023-01-11T06:45:59.171Z,100330.53
2023-01-11T06:48:26.441Z,100338.38
2023-01-11T06:50:55.941Z,100340.75
2023-01-11T06:53:24.972Z,100341.31
2023-01-11T06:55:54.784Z,100351.59
2023-01-11T06:58:23.779Z,100353.16
2023-01-11T07:00:52.102Z,100341.44
2023-01-11T07:03:20.500Z,100362.78
2023-01-11T07:05:47.679Z,100360.41
2023-01-11T07:08:14.189Z,100355.91
2023-01-11T07:10:41.081Z,100360.28
2023-01-11T07:13:07.845Z,100364.69
2023-01-11T07:15:34.916Z,100380.34
2023-01-11T07:18:01.739Z,100370.44
2023-01-11T07:20:29.084Z,100390.81
2023-01-11T07:22:59.657Z,100395.22
2023-01-11T07:25:30.472Z,100398.09
2023-01-11T07:28:02.430Z,100411.53
2023-01-11T07:30:31.226Z,100401.06
2023-01-11T07:32:58.930Z,100412.38
2023-01-11T07:35:28.013Z,100409.44
2023-01-11T07:37:55.295Z,100413.97
2023-01-11T07:40:21.874Z,100415.06
2023-01-11T07:43:11.650Z,100416.03
2023-01-11T07:45:45.809Z,100403.91
2023-01-11T07:48:13.643Z,100388.72
2023-01-11T07:50:44.269Z,100381.56
2023-01-11T07:53:11.655Z,100400.81
2023-01-11T07:55:39.684Z,100386.22
2023-01-11T07:58:07.732Z,100402.84
2023-01-11T08:00:34.311Z,100410.81
2023-01-11T08:03:02.114Z,100423.06
2023-01-11T08:05:29.064Z,100427.31
2023-01-11T08:07:55.559Z,100424.38
2023-01-11T08:10:22.055Z,100414.63
2023-01-11T08:13:07.908Z,100432.91
2023-01-11T08:15:42.347Z,100433.88
2023-01-11T08:18:09.758Z,100433.03
2023-01-11T08:20:36.379Z,100427.00
2023-01-11T08:23:08.035Z,100439.81
2023-01-11T08:25:34.587Z,100444.91
2023-01-11T08:28:03.015Z,100461.53
2023-01-11T08:30:30.227Z,100446.72
2023-01-11T08:32:57.622Z,100476.75
2023-01-11T08:35:25.754Z,100486.94
2023-01-11T08:37:52.455Z,100482.81
2023-01-11T08:40:19.525Z,100481.97
2023-01-11T08:42:46.332Z,100485.41
2023-01-11T08:45:12.838Z,100478.50
2023-01-11T08:47:39.369Z,100475.78
2023-01-11T08:50:08.254Z,100489.44
2023-01-11T08:52:34.849Z,100500.00
2023-01-11T08:55:01.510Z,100501.09
2023-01-11T08:57:28.124Z,100509.72
2023-01-11T08:59:54.602Z,100513.03
2023-01-11T09:02:21.221Z,100513.50
2023-01-11T09:04:47.819Z,100525.63
2023-01-11T09:07:14.343Z,100532.75
2023-01-11T09:09:41.158Z,100531.81
2023-01-11T09:12:07.847Z,100529.19
2023-01-11T09:14:34.721Z,100542.00
2023-01-11T09:17:01.341Z,100546.88
2023-01-11T09:19:27.834Z,100541.03
2023-01-11T09:21:57.221Z,100551.38
2023-01-11T09:24:23.728Z,100555.31
2023-01-11T09:26:50.395Z,100558.72
2023-01-11T09:29:17.140Z,100573.00
2023-01-11T09:31:43.688Z,100568.13
2023-01-11T09:34:12.645Z,100566.69
2023-01-11T09:36:40.295Z,100562.88
2023-01-11T09:39:11.599Z,100578.09
2023-01-11T09:41:54.326Z,100580.22
2023-01-11T09:44:25.540Z,100587.34
2023-01-11T09:47:10.008Z,100586.53
2023-01-11T09:49:40.707Z,100602.06
2023-01-11T09:52:24.400Z,100618.00
2023-01-11T09:54:51.587Z,100599.97
2023-01-11T09:57:32.332Z,100600.78
2023-01-11T10:00:19.475Z,100616.94
2023-01-11T10:02:45.967Z,100623.84
2023-01-11T10:05:37.521Z,100634.28
2023-01-11T10:18:22.844Z,100646.03
2023-01-11T10:18:28.492Z,100642.13
2023-01-11T10:20:53.116Z,100654.34
2023-01-11T10:23:28.653Z,100656.38
2023-01-11T10:25:58.776Z,100669.44
2023-01-11T10:28:58.598Z,100648.06
2023-01-11T10:31:49.379Z,100681.78
2023-01-11T10:34:39.223Z,100682.84
2023-01-11T10:37:39.332Z,100667.53
2023-01-11T10:40:42.822Z,100681.88
2023-01-11T10:43:21.835Z,100669.41
2023-01-11T10:45:53.310Z,100671.09
2023-01-11T10:48:39.700Z,100668.72
2023-01-11T10:51:36.915Z,100674.16
2023-01-11T10:54:26.979Z,100673.09
2023-01-11T10:57:20.445Z,100665.75
2023-01-11T10:59:48.770Z,100670.47
2023-01-11T11:02:42.729Z,100676.06
2023-01-11T11:05:46.731Z,100673.94
2023-01-11T11:08:19.291Z,100678.91
2023-01-11T11:10:48.773Z,100678.22
2023-01-11T11:13:57.199Z,100672.63
2023-01-11T11:16:23.695Z,100678.22
2023-01-11T11:18:58.375Z,100679.03
2023-01-11T11:21:39.010Z,100672.75
2023-01-11T11:24:20.181Z,100683.66
2023-01-11T11:26:55.253Z,100689.84
2023-01-11T11:29:23.584Z,100667.88
2023-01-11T11:31:51.173Z,100663.38
2023-01-11T11:34:20.765Z,100667.28
2023-01-11T11:36:50.216Z,100671.91
2023-01-11T11:39:21.244Z,100682.34
2023-01-11T11:41:53.162Z,100679.28
2023-01-11T11:44:24.579Z,100680.69
2023-01-11T11:47:01.549Z,100676.44
2023-01-11T11:49:29.090Z,100700.88
2023-01-11T11:51:56.603Z,100692.94
2023-01-11T11:54:37.556Z,100698.16
2023-01-11T11:57:20.614Z,100684.50
2023-01-11T11:59:49.875Z,100673.22
2023-01-11T12:02:29.950Z,100695.44
2023-01-11T12:05:05.131Z,100692.50
2023-01-11T12:07:49.784Z,100695.19
2023-01-11T12:10:25.692Z,100688.06
2023-01-11T12:12:56.924Z,100689.31
2023-01-11T12:15:29.495Z,100687.81
2023-01-11T12:18:22.870Z,100696.59
2023-01-11T12:20:49.605Z,100690.22
2023-01-11T12:23:25.024Z,100684.78
2023-01-11T12:26:09.293Z,100696.03
2023-01-11T12:29:05.481Z,100698.47
2023-01-11T12:31:40.650Z,100701.38
2023-01-11T12:34:13.278Z,100697.97
2023-01-11T12:36:54.863Z,100691.38
2023-01-11T12:39:40.353Z,100695.84
2023-01-11T12:42:37.363Z,100697.91
2023-01-11T12:45:25.074Z,100702.38
2023-01-11T12:48:38.125Z,100688.84
2023-01-11T12:51:14.050Z,100683.59
2023-01-11T12:54:16.623Z,100699.03
2023-01-11T12:56:54.969Z,100711.66
2023-01-11T12:59:52.887Z,100710.47
2023-01-11T13:03:00.522Z,100730.38
2023-01-11T13:05:35.633Z,100733.31
2023-01-11T13:08:04.844Z,100705.41
2023-01-11T13:10:55.668Z,100738.91
2023-01-11T13:13:58.436Z,100734.91
2023-01-11T13:16:35.732Z,100729.66
2023-01-11T13:19:10.635Z,100731.25
2023-01-11T13:21:44.330Z,100734.47
2023-01-11T13:24:14.384Z,100728.53
2023-01-11T13:26:51.060Z,100737.78
2023-01-11T13:29:33.643Z,100735.16
2023-01-11T13:32:04.106Z,100736.09
2023-01-11T13:35:08.874Z,100746.91
2023-01-11T13:37:39.820Z,100747.09
2023-01-11T13:40:30.370Z,100750.53
2023-01-11T13:43:03.726Z,100746.16
2023-01-11T13:45:44.097Z,100741.28
2023-01-11T13:48:28.458Z,100741.41
2023-01-11T13:51:02.937Z,100760.69
2023-01-11T13:53:43.793Z,100747.44
2023-01-11T13:56:18.957Z,100767.78
2023-01-11T13:58:56.255Z,100760.38
2023-01-11T14:01:56.111Z,100760.84
2023-01-11T14:04:47.251Z,100765.97
2023-01-11T14:07:44.377Z,100763.41
2023-01-11T14:10:21.667Z,100760.72
2023-01-11T14:13:36.339Z,100753.94
2023-01-11T14:16:13.973Z,100768.84
2023-01-11T14:18:56.854Z,100769.75
2023-01-11T14:21:33.690Z,100758.38
2023-01-11T14:24:01.005Z,100761.97
2023-01-11T14:26:36.707Z,100764.34
2023-01-11T14:29:41.390Z,100768.47
2023-01-11T14:32:21.041Z,100782.50
2023-01-11T14:35:15.421Z,100778.59
2023-01-11T14:38:23.360Z,100799.22
2023-01-11T14:41:05.057Z,100769.63
2023-01-11T14:43:43.748Z,100808.34
2023-01-11T14:46:48.936Z,100798.03
2023-01-11T14:49:37.453Z,100809.91
2023-01-11T14:52:10.607Z,100808.38
2023-01-11T14:54:49.417Z,100792.06
2023-01-11T14:57:42.930Z,100801.56
2023-01-11T15:00:18.604Z,100793.97
2023-01-11T15:03:05.359Z,100788.59
2023-01-11T15:05:32.805Z,100789.53
2023-01-11T15:08:14.652Z,100789.16
2023-01-11T15:11:04.210Z,100776.44
2023-01-11T15:13:43.355Z,100785.56
2023-01-11T15:16:48.633Z,100787.94
2023-01-11T15:19:36.747Z,100780.06
2023-01-11T15:22:05.978Z,100792.06
2023-01-11T15:24:34.650Z,100785.03
2023-01-11T15:27:02.580Z,100788.25
2023-01-11T15:29:32.083Z,100816.13
2023-01-11T15:32:01.598Z,100812.06
2023-01-11T15:34:31.162Z,100823.47
2023-01-11T15:36:57.697Z,100826.06
2023-01-11T15:39:44.587Z,100818.94
2023-01-11T15:42:16.843Z,100824.28
2023-01-11T15:44:49.091Z,100820.84
2023-01-11T15:47:21.543Z,100823.56
2023-01-11T15:49:57.104Z,100821.09
2023-01-11T15:52:53.044Z,100815.13
2023-01-11T15:55:51.298Z,100800.47
2023-01-11T15:58:36.240Z,100819.63
2023-01-11T16:01:21.977Z,100822.34
2023-01-11T16:04:06.999Z,100826.03
2023-01-11T16:06:41.936Z,100826.03
2023-01-11T16:09:27.009Z,100837.41
2023-01-11T16:11:53.531Z,100839.50
2023-01-11T16:14:58.219Z,100835.22
2023-01-11T16:17:25.226Z,100844.19
2023-01-11T16:19:56.663Z,100843.72
2023-01-11T16:22:25.857Z,100854.97
2023-01-11T16:24:57.002Z,100840.72
2023-01-11T16:27:34.025Z,100866.47
2023-01-11T16:30:01.208Z,100850.31
2023-01-11T16:32:32.722Z,100861.88
2023-01-11T16:35:03.655Z,100859.00
2023-01-11T16:37:44.415Z,100867.31
2023-01-11T16:40:11.304Z,100871.09
2023-01-11T16:42:53.341Z,100871.53
2023-01-11T16:45:23.161Z,100883.31
2023-01-11T16:48:06.395Z,100882.69
2023-01-11T16:50:34.629Z,100895.84
2023-01-11T16:53:05.047Z,100897.09
2023-01-11T16:55:36.577Z,100906.88
2023-01-11T16:58:17.404Z,100907.75
2023-01-11T17:00:57.429Z,100916.50
2023-01-11T17:03:26.193Z,100909.00
2023-01-11T17:06:15.410Z,100927.78
2023-01-11T17:08:47.841Z,100927.88
2023-01-11T17:11:22.568Z,100929.63
2023-01-11T17:14:13.846Z,100929.00
2023-01-11T17:16:47.893Z,100937.03
2023-01-11T17:19:23.595Z,100929.94
2023-01-11T17:21:54.558Z,100916.19
2023-01-11T17:24:25.206Z,100926.91
2023-01-11T17:26:58.072Z,100927.94
2023-01-11T17:29:45.410Z,100934.31
2023-01-11T17:32:20.019Z,100929.09
2023-01-11T17:34:48.982Z,100925.66
2023-01-11T17:37:18.297Z,100929.28
2023-01-11T17:39:51.840Z,100916.38
2023-01-11T17:42:38.105Z,100925.50
2023-01-11T17:45:20.791Z,100914.16
2023-01-11T17:47:50.481Z,100924.66
2023-01-11T17:50:24.851Z,100912.81
2023-01-11T17:53:00.716Z,100907.81
2023-01-11T17:55:27.944Z,100905.72
2023-01-11T17:58:19.770Z,100916.97
2023-01-11T18:01:15.660Z,100910.09
2023-01-11T18:04:01.822Z,100901.13
2023-01-11T18:06:45.040Z,100921.44
2023-01-11T18:09:29.275Z,100922.50
2023-01-11T18:12:16.476Z,100904.56
2023-01-11T18:14:54.846Z,100914.22
2023-01-11T18:17:30.800Z,100921.94
2023-01-11T18:19:57.977Z,100901.72
2023-01-11T18:22:31.864Z,100915.88
2023-01-11T18:25:04.626Z,100934.34
2023-01-11T18:27:35.179Z,100929.84
2023-01-11T18:30:08.587Z,100914.34
2023-01-11T18:32:40.996Z,100905.78
2023-01-11T18:35:18.328Z,100908.59
2023-01-11T18:37:45.115Z,100917.13
2023-01-11T18:40:16.026Z,100915.69
2023-01-11T18:42:49.678Z,100910.47
2023-01-11T18:45:16.480Z,100916.63
2023-01-11T18:47:43.253Z,100907.53
2023-01-11T18:50:12.497Z,100911.59
2023-01-11T18:52:39.280Z,100909.00
2023-01-11T18:55:06.651Z,100910.13
2023-01-11T18:57:33.224Z,100907.44
2023-01-11T18:59:59.784Z,100908.09
2023-01-11T19:02:28.628Z,100895.97
2023-01-11T19:04:56.672Z,100889.09
2023-01-11T19:07:24.801Z,100889.94
2023-01-11T19:09:55.401Z,100875.16
2023-01-11T19:12:25.161Z,100883.72
2023-01-11T19:14:56.277Z,100873.78
2023-01-11T19:17:30.293Z,100894.22
2023-01-11T19:20:01.424Z,100882.56
2023-01-11T19:22:28.643Z,100871.94
2023-01-11T19:24:55.499Z,100865.06
2023-01-11T19:27:23.093Z,100856.53
2023-01-11T19:29:49.881Z,100858.00
2023-01-11T19:32:17.351Z,100857.78
2023-01-11T19:34:43.892Z,100861.63
2023-01-11T19:37:10.723Z,100885.41
2023-01-11T19:39:37.329Z,100882.34
2023-01-11T19:42:04.026Z,100882.66
2023-01-11T19:44:33.469Z,100884.38
2023-01-11T19:47:17.217Z,100885.28
2023-01-11T19:49:44.066Z,100883.63
2023-01-11T19:52:13.748Z,100891.25
2023-01-11T19:54:42.324Z,100878.41
2023-01-11T19:57:14.410Z,100867.47
2023-01-11T19:59:42.041Z,100867.03
2023-01-11T20:02:14.156Z,100854.34
2023-01-11T20:04:41.073Z,100858.59
2023-01-11T20:07:11.452Z,100830.09
2023-01-11T20:09:38.204Z,100832.69
2023-01-11T20:12:10.040Z,100847.38
2023-01-11T20:14:37.797Z,100843.81
2023-01-11T20:17:04.485Z,100826.53
2023-01-11T20:19:30.945Z,100823.84
2023-01-11T20:21:57.416Z,100833.50
2023-01-11T20:24:28.397Z,100825.69
2023-01-11T20:26:56.239Z,100836.03
2023-01-11T20:29:22.874Z,100824.88
2023-01-11T20:31:49.605Z,100805.31
2023-01-11T20:34:16.955Z,100800.72
2023-01-11T20:36:44.190Z,100796.25
2023-01-11T20:39:11.560Z,100801.44
2023-01-11T20:41:47.018Z,100807.16
2023-01-11T20:44:16.224Z,100788.31
2023-01-11T20:46:43.456Z,100793.31
2023-01-11T20:49:10.940Z,100818.41
2023-01-11T20:51:37.507Z,100795.59
2023-01-11T20:54:05.681Z,100805.72
2023-01-11T20:56:33.594Z,100806.53
2023-01-11T20:59:01.434Z,100800.28
2023-01-11T21:01:28.541Z,100808.44
2023-01-11T21:03:58.237Z,100810.00
2023-01-11T21:06:24.829Z,100807.19
2023-01-11T21:08:59.278Z,100806.75
2023-01-11T21:11:26.371Z,100800.50
2023-01-11T21:16:24.613Z,100795.06
2023-01-11T21:19:11.852Z,100770.59
2023-01-11T21:21:38.360Z,100768.59
2023-01-11T21:24:05.977Z,100783.72
2023-01-11T21:26:34.546Z,100762.88
2023-01-11T21:29:03.473Z,100766.00
2023-01-11T21:31:32.810Z,100770.50
2023-01-11T21:34:00.789Z,100757.22
2023-01-11T21:36:29.179Z,100754.63
2023-01-11T21:38:57.235Z,100779.97
2023-01-11T21:41:46.140Z,100747.66
2023-01-11T21:44:13.821Z,100743.81
2023-01-11T21:46:40.932Z,100744.63
2023-01-11T21:49:07.916Z,100737.13
2023-01-11T21:51:35.092Z,100748.59
2023-01-11T21:54:05.668Z,100781.56
2023-01-11T21:56:32.503Z,100758.09
2023-01-11T21:58:59.245Z,100750.63
2023-01-11T22:01:25.799Z,100724.38
2023-01-11T22:03:52.420Z,100744.66
2023-01-11T22:06:19.105Z,100747.47
2023-01-11T22:08:46.474Z,100763.13
2023-01-11T22:11:15.139Z,100754.44
2023-01-11T22:13:41.980Z,100742.59
2023-01-11T22:16:12.429Z,100738.34
2023-01-11T22:18:41.074Z,100740.72
2023-01-11T22:21:13.454Z,100753.88
2023-01-11T22:23:40.898Z,100750.50
2023-01-11T22:26:10.668Z,100740.00
2023-01-11T22:28:57.219Z,100729.66
2023-01-11T22:31:25.101Z,100735.81
2023-01-11T22:33:51.840Z,100745.44
2023-01-11T22:36:19.459Z,100749.56
2023-01-11T22:38:46.836Z,100734.13
2023-01-11T22:41:14.844Z,100741.22
2023-01-11T22:43:43.060Z,100731.13
2023-01-11T22:46:17.482Z,100733.09
2023-01-11T22:48:44.427Z,100738.81
2023-01-11T22:51:11.920Z,100727.59
2023-01-11T22:53:43.494Z,100730.09
2023-01-11T22:56:11.920Z,100727.47
2023-01-11T22:58:38.591Z,100716.22
2023-01-11T23:01:15.076Z,100712.69
2023-01-11T23:03:42.435Z,100726.75
2023-01-11T23:06:09.773Z,100730.59
2023-01-11T23:08:40.776Z,100732.81
2023-01-11T23:11:36.036Z,100743.31
2023-01-11T23:14:04.935Z,100756.47
2023-01-11T23:16:31.937Z,100738.97
2023-01-11T23:18:58.801Z,100732.81
2023-01-11T23:21:25.285Z,100732.19
2023-01-11T23:23:52.360Z,100734.69
2023-01-11T23:26:20.264Z,100732.28
2023-01-11T23:28:48.844Z,100742.50
2023-01-11T23:31:19.294Z,100744.56
2023-01-11T23:33:51.818Z,100733.13
2023-01-11T23:36:20.622Z,100718.84
2023-01-11T23:38:47.802Z,100743.94
2023-01-11T23:41:36.091Z,100726.75
2023-01-11T23:44:06.100Z,100726.44
2023-01-11T23:46:51.116Z,100746.34
2023-01-11T23:49:17.972Z,100739.25
2023-01-11T23:51:44.551Z,100745.41
2023-01-11T23:54:11.180Z,100742.50
2023-01-11T23:56:38.220Z,100738.81
2023-01-11T23:59:05.418Z,100739.38
